createdAt,value
2023-08-01T00:00:15.450Z,10.00
2023-08-01T00:01:15.531Z,8.90
2023-08-01T00:02:15.416Z,10.10
2023-08-01T00:03:15.459Z,8.40
2023-08-01T00:04:15.399Z,10.30
2023-08-01T00:05:15.386Z,10.20
2023-08-01T00:06:15.365Z,8.40
2023-08-01T00:07:15.344Z,11.20
2023-08-01T00:08:15.326Z,11.60
2023-08-01T00:09:15.331Z,11.10
2023-08-01T00:10:15.302Z,12.10
2023-08-01T00:11:15.294Z,10.70
2023-08-01T00:12:15.274Z,10.70
2023-08-01T00:13:15.278Z,10.10
2023-08-01T00:14:15.295Z,11.80
2023-08-01T00:15:15.234Z,9.80
2023-08-01T00:16:15.267Z,11.60
2023-08-01T00:17:15.206Z,11.10
2023-08-01T00:18:15.207Z,9.60
2023-08-01T00:19:15.177Z,10.30
2023-08-01T00:20:15.165Z,10.90
2023-08-01T00:21:15.150Z,10.00
2023-08-01T00:22:15.141Z,12.60
2023-08-01T00:23:15.142Z,11.30
2023-08-01T00:24:15.119Z,8.10
2023-08-01T00:25:15.099Z,10.50
2023-08-01T00:26:15.086Z,12.70
2023-08-01T00:27:15.109Z,11.60
2023-08-01T00:28:15.255Z,9.50
2023-08-01T00:29:15.101Z,9.80
2023-08-01T00:30:15.089Z,7.70
2023-08-01T00:31:15.083Z,11.40
2023-08-01T00:32:15.166Z,9.60
2023-08-01T00:33:15.084Z,12.00
2023-08-01T00:34:14.988Z,12.20
2023-08-01T00:35:14.976Z,11.20
2023-08-01T00:36:14.981Z,12.40
2023-08-01T00:37:14.962Z,11.80
2023-08-01T00:38:14.932Z,12.20
2023-08-01T00:39:14.910Z,11.00
2023-08-01T00:40:14.921Z,14.40
2023-08-01T00:41:14.929Z,12.40
2023-08-01T00:42:14.898Z,16.90
2023-08-01T00:43:14.862Z,14.00
2023-08-01T00:44:14.852Z,14.50
2023-08-01T00:45:14.839Z,18.30
2023-08-01T00:46:14.860Z,15.50
2023-08-01T00:47:14.809Z,14.70
2023-08-01T00:48:14.828Z,11.60
2023-08-01T00:49:14.783Z,11.90
2023-08-01T00:50:14.780Z,13.00
2023-08-01T00:51:14.774Z,13.80
2023-08-01T00:52:14.739Z,14.70
2023-08-01T00:53:14.748Z,15.00
2023-08-01T00:54:14.715Z,12.00
2023-08-01T00:55:14.702Z,11.70
2023-08-01T00:56:14.730Z,11.80
2023-08-01T00:57:14.683Z,12.20
2023-08-01T00:58:14.668Z,12.70
2023-08-01T00:59:14.650Z,11.20
2023-08-01T01:00:14.640Z,11.20
2023-08-01T01:01:14.670Z,11.40
2023-08-01T01:02:14.676Z,12.00
2023-08-01T01:03:14.650Z,10.90
2023-08-01T01:04:14.598Z,12.00
2023-08-01T01:05:14.598Z,8.50
2023-08-01T01:06:14.575Z,10.80
2023-08-01T01:07:14.555Z,12.70
2023-08-01T01:08:14.555Z,11.90
2023-08-01T01:09:14.523Z,10.70
2023-08-01T01:10:14.544Z,11.80
2023-08-01T01:11:14.489Z,10.00
2023-08-01T01:12:14.479Z,14.40
2023-08-01T01:13:14.469Z,12.20
2023-08-01T01:14:14.507Z,11.10
2023-08-01T01:15:14.455Z,13.30
2023-08-01T01:16:14.484Z,13.50
2023-08-01T01:17:14.415Z,12.60
2023-08-01T01:18:14.430Z,12.00
2023-08-01T01:19:14.402Z,12.80
2023-08-01T01:20:14.401Z,10.60
2023-08-01T01:21:14.366Z,12.90
2023-08-01T01:22:14.349Z,12.30
2023-08-01T01:23:14.347Z,15.30
2023-08-01T01:24:14.338Z,12.90
2023-08-01T01:25:14.308Z,15.10
2023-08-01T01:26:14.304Z,15.50
2023-08-01T01:27:14.287Z,15.70
2023-08-01T01:28:14.286Z,14.70
2023-08-01T01:29:14.273Z,15.40
2023-08-01T01:30:14.247Z,16.60
2023-08-01T01:31:14.305Z,17.30
2023-08-01T01:32:14.237Z,16.90
2023-08-01T01:33:14.217Z,19.00
2023-08-01T01:34:14.239Z,17.30
2023-08-01T01:35:14.178Z,18.20
2023-08-01T01:36:14.173Z,18.70
2023-08-01T01:37:14.164Z,15.90
2023-08-01T01:38:14.165Z,17.20
2023-08-01T01:39:14.152Z,16.00
2023-08-01T01:40:14.115Z,16.90
2023-08-01T01:41:14.107Z,19.30
2023-08-01T01:42:14.128Z,15.20
2023-08-01T01:45:04.834Z,13.50
2023-08-01T01:46:04.898Z,14.40
2023-08-01T01:47:04.801Z,14.30
2023-08-01T01:48:04.802Z,16.00
2023-08-01T01:49:04.771Z,13.10
2023-08-01T01:50:04.804Z,14.00
2023-08-01T01:51:04.774Z,15.80
2023-08-01T01:52:04.744Z,15.30
2023-08-01T01:53:04.745Z,17.10
2023-08-01T01:54:04.706Z,16.90
2023-08-01T01:55:04.701Z,14.40
2023-08-01T01:56:04.704Z,16.80
2023-08-01T01:57:04.695Z,17.10
2023-08-01T01:58:04.669Z,16.40
2023-08-01T01:59:04.647Z,14.20
2023-08-01T02:00:04.630Z,15.20
2023-08-01T02:01:04.653Z,15.50
2023-08-01T02:02:04.613Z,17.50
2023-08-01T02:03:04.597Z,14.00
2023-08-01T02:04:04.573Z,13.90
2023-08-01T02:05:04.620Z,12.90
2023-08-01T02:06:04.583Z,14.90
2023-08-01T02:07:04.570Z,14.80
2023-08-01T02:08:04.525Z,15.50
2023-08-01T02:09:04.547Z,14.70
2023-08-01T02:10:04.573Z,15.90
2023-08-01T02:11:04.507Z,14.80
2023-08-01T02:12:04.488Z,15.70
2023-08-01T02:13:04.463Z,14.80
2023-08-01T02:14:04.460Z,14.20
2023-08-01T02:15:04.440Z,13.30
2023-08-01T02:16:04.461Z,14.50
2023-08-01T02:17:04.413Z,17.40
2023-08-01T02:18:04.449Z,15.20
2023-08-01T02:19:04.401Z,15.50
2023-08-01T02:20:04.368Z,13.60
2023-08-01T02:21:04.377Z,11.70
2023-08-01T02:22:04.368Z,13.70
2023-08-01T02:23:04.342Z,14.30
2023-08-01T02:24:04.325Z,14.30
2023-08-01T02:25:04.337Z,13.30
2023-08-01T02:26:04.320Z,15.80
2023-08-01T02:27:04.283Z,14.00
2023-08-01T02:28:04.319Z,15.40
2023-08-01T02:29:04.266Z,15.40
2023-08-01T02:30:04.267Z,14.50
2023-08-01T02:31:04.238Z,14.60
2023-08-01T02:32:04.260Z,13.60
2023-08-01T02:33:04.277Z,14.80
2023-08-01T02:34:04.204Z,14.40
2023-08-01T02:35:04.192Z,14.70
2023-08-01T02:36:04.170Z,16.70
2023-08-01T02:37:04.160Z,14.60
2023-08-01T02:38:04.154Z,14.40
2023-08-01T02:39:04.140Z,13.90
2023-08-01T02:40:04.148Z,15.00
2023-08-01T02:41:04.103Z,13.00
2023-08-01T02:42:04.083Z,12.00
2023-08-01T02:43:04.081Z,15.80
2023-08-01T02:44:04.075Z,13.00
2023-08-01T02:45:04.044Z,15.30
2023-08-01T02:46:04.046Z,14.10
2023-08-01T02:47:04.040Z,13.50
2023-08-01T02:48:04.036Z,13.60
2023-08-01T02:49:04.005Z,13.20
2023-08-01T02:50:03.982Z,16.70
2023-08-01T02:51:03.975Z,15.30
2023-08-01T02:52:03.967Z,17.10
2023-08-01T02:53:03.950Z,14.30
2023-08-01T02:54:03.970Z,15.00
2023-08-01T02:55:03.917Z,14.60
2023-08-01T02:56:03.900Z,16.30
2023-08-01T02:57:03.884Z,11.30
2023-08-01T02:58:03.888Z,11.20
2023-08-01T02:59:03.877Z,11.10
2023-08-01T03:00:03.842Z,12.70
2023-08-01T03:01:03.849Z,12.00
2023-08-01T03:02:03.830Z,13.50
2023-08-01T03:03:03.891Z,14.60
2023-08-01T03:04:03.794Z,11.20
2023-08-01T03:05:03.786Z,14.30
2023-08-01T03:06:03.768Z,11.90
2023-08-01T03:07:03.752Z,12.20
2023-08-01T03:08:03.748Z,12.20
2023-08-01T03:09:41.946Z,11.00
2023-08-01T03:10:03.716Z,13.20
2023-08-01T03:11:03.702Z,11.80
2023-08-01T03:12:03.685Z,13.30
2023-08-01T03:13:03.710Z,12.70
2023-08-01T03:14:03.660Z,13.90
2023-08-01T03:15:03.649Z,11.70
2023-08-01T03:16:03.675Z,9.70
2023-08-01T03:17:03.636Z,10.40
2023-08-01T03:18:03.665Z,9.40
2023-08-01T03:19:03.599Z,10.40
2023-08-01T03:20:03.595Z,9.80
2023-08-01T03:21:03.586Z,13.60
2023-08-01T03:22:03.558Z,12.00
2023-08-01T03:23:03.560Z,11.20
2023-08-01T03:24:03.539Z,11.40
2023-08-01T03:25:03.593Z,10.50
2023-08-01T03:26:03.521Z,11.90
2023-08-01T03:27:03.507Z,11.30
2023-08-01T03:28:03.572Z,10.20
2023-08-01T03:29:03.464Z,12.60
2023-08-01T03:30:03.454Z,12.90
2023-08-01T03:31:03.470Z,10.60
2023-08-01T03:32:03.534Z,9.90
2023-08-01T03:33:03.496Z,8.20
2023-08-01T03:34:03.411Z,9.80
2023-08-01T03:35:03.486Z,9.00
2023-08-01T03:36:03.380Z,13.20
2023-08-01T03:37:03.389Z,9.20
2023-08-01T03:38:03.349Z,10.00
2023-08-01T03:39:03.341Z,8.40
2023-08-01T03:40:03.329Z,12.60
2023-08-01T03:41:03.370Z,9.30
2023-08-01T03:42:03.324Z,8.60
2023-08-01T03:43:03.288Z,10.00
2023-08-01T03:44:03.281Z,9.30
2023-08-01T03:45:03.262Z,10.00
2023-08-01T03:46:03.362Z,10.00
2023-08-01T03:47:03.252Z,8.80
2023-08-01T03:48:03.266Z,9.40
2023-08-01T03:49:03.221Z,8.50
2023-08-01T03:50:03.200Z,9.00
2023-08-01T03:51:03.201Z,7.00
2023-08-01T03:52:03.160Z,8.10
2023-08-01T03:53:03.147Z,9.00
2023-08-01T03:54:12.826Z,8.30
2023-08-01T03:55:03.154Z,9.20
2023-08-01T03:56:03.128Z,8.80
2023-08-01T03:57:03.132Z,8.90
2023-08-01T03:58:03.090Z,7.80
2023-08-01T03:59:03.075Z,6.90
2023-08-01T04:00:03.059Z,8.60
2023-08-01T04:01:03.096Z,8.20
2023-08-01T04:02:03.032Z,9.20
2023-08-01T04:03:03.166Z,9.10
2023-08-01T04:04:03.079Z,8.30
2023-08-01T04:05:03.004Z,7.40
2023-08-01T04:06:02.988Z,7.90
2023-08-01T04:07:02.965Z,9.00
2023-08-01T04:08:03.038Z,9.40
2023-08-01T04:09:02.945Z,7.00
2023-08-01T04:10:02.948Z,8.10
2023-08-01T04:11:02.916Z,8.20
2023-08-01T04:12:02.902Z,10.00
2023-08-01T04:13:02.922Z,6.70
2023-08-01T04:14:02.869Z,7.20
2023-08-01T04:15:02.872Z,10.00
2023-08-01T04:16:02.866Z,8.00
2023-08-01T04:17:02.861Z,10.40
2023-08-01T04:18:02.872Z,10.10
2023-08-01T04:19:02.830Z,8.40
2023-08-01T04:20:02.850Z,8.20
2023-08-01T04:21:02.777Z,8.20
2023-08-01T04:22:02.764Z,8.90
2023-08-01T04:23:02.757Z,9.30
2023-08-01T04:24:02.758Z,8.60
2023-08-01T04:25:02.722Z,9.10
2023-08-01T04:26:02.710Z,9.70
2023-08-01T04:27:02.710Z,7.80
2023-08-01T04:28:02.719Z,7.60
2023-08-01T04:29:02.720Z,9.20
2023-08-01T04:30:02.712Z,9.00
2023-08-01T04:31:02.699Z,11.30
2023-08-01T04:32:02.633Z,11.40
2023-08-01T04:33:02.678Z,7.70
2023-08-01T04:34:02.626Z,8.50
2023-08-01T04:35:02.607Z,9.20
2023-08-01T04:36:02.592Z,10.30
2023-08-01T04:37:02.572Z,9.20
2023-08-01T04:38:02.578Z,8.40
2023-08-01T04:39:02.563Z,7.40
2023-08-01T04:40:02.533Z,7.70
2023-08-01T04:41:02.518Z,6.60
2023-08-01T04:42:02.509Z,8.10
2023-08-01T04:43:02.516Z,9.20
2023-08-01T04:44:02.482Z,11.00
2023-08-01T04:45:02.492Z,10.00
2023-08-01T04:46:02.456Z,9.30
2023-08-01T04:47:02.548Z,7.50
2023-08-01T04:48:02.490Z,9.30
2023-08-01T04:49:02.416Z,8.60
2023-08-01T04:50:02.405Z,9.10
2023-08-01T04:51:02.383Z,7.90
2023-08-01T04:52:02.408Z,8.60
2023-08-01T04:53:02.375Z,7.70
2023-08-01T04:54:02.345Z,7.40
2023-08-01T04:55:02.341Z,8.80
2023-08-01T04:56:02.327Z,8.00
2023-08-01T04:57:02.320Z,8.30
2023-08-01T04:58:02.295Z,8.80
2023-08-01T04:59:02.295Z,8.50
2023-08-01T05:00:02.281Z,7.40
2023-08-01T05:01:02.348Z,8.70
2023-08-01T05:02:02.260Z,7.30
2023-08-01T05:03:02.282Z,9.90
2023-08-01T05:04:02.260Z,10.40
2023-08-01T05:05:02.204Z,10.00
2023-08-01T05:06:02.206Z,8.60
2023-08-01T05:07:02.176Z,8.10
2023-08-01T05:08:02.169Z,12.00
2023-08-01T05:09:02.151Z,11.90
2023-08-01T05:10:02.152Z,11.90
2023-08-01T05:11:02.143Z,10.70
2023-08-01T05:12:02.107Z,13.80
2023-08-01T05:13:02.118Z,10.20
2023-08-01T05:14:02.083Z,9.20
2023-08-01T05:15:02.110Z,9.20
2023-08-01T05:16:02.075Z,9.30
2023-08-01T05:17:02.150Z,9.10
2023-08-01T05:18:02.050Z,11.10
2023-08-01T05:19:02.027Z,9.60
2023-08-01T05:20:02.040Z,10.50
2023-08-01T05:21:02.011Z,8.40
2023-08-01T05:22:01.978Z,8.20
2023-08-01T05:23:01.970Z,9.00
2023-08-01T05:24:01.957Z,10.50
2023-08-01T05:25:01.962Z,10.90
2023-08-01T05:26:01.934Z,9.20
2023-08-01T05:27:01.920Z,11.40
2023-08-01T05:28:01.945Z,9.50
2023-08-01T05:29:01.916Z,10.60
2023-08-01T05:30:01.892Z,8.10
2023-08-01T05:31:01.919Z,7.50
2023-08-01T05:32:01.853Z,10.00
2023-08-01T05:33:01.863Z,8.50
2023-08-01T05:34:01.844Z,8.20
2023-08-01T05:35:01.810Z,7.50
2023-08-01T05:36:01.795Z,9.00
2023-08-01T05:37:01.785Z,7.80
2023-08-01T05:38:01.778Z,10.30
2023-08-01T05:39:01.805Z,9.80
2023-08-01T05:40:01.738Z,9.30
2023-08-01T05:41:01.736Z,8.90
2023-08-01T05:42:01.720Z,9.40
2023-08-01T05:43:01.716Z,8.40
2023-08-01T05:44:01.703Z,9.00
2023-08-01T05:45:01.676Z,9.70
2023-08-01T05:46:01.688Z,7.30
2023-08-01T05:47:01.649Z,9.50
2023-08-01T05:48:01.819Z,10.50
2023-08-01T05:49:01.667Z,8.90
2023-08-01T05:50:01.714Z,9.10
2023-08-01T05:51:01.615Z,9.70
2023-08-01T05:52:01.583Z,11.30
2023-08-01T05:53:01.601Z,9.20
2023-08-01T05:54:01.554Z,8.90
2023-08-01T05:55:01.594Z,7.00
2023-08-01T05:56:01.565Z,6.60
2023-08-01T05:57:01.540Z,7.00
2023-08-01T05:58:01.532Z,8.00
2023-08-01T05:59:01.495Z,5.70
2023-08-01T06:00:01.473Z,6.10
2023-08-01T06:01:01.485Z,8.10
2023-08-01T06:02:01.537Z,5.90
2023-08-01T06:03:01.482Z,6.20
2023-08-01T06:04:01.515Z,6.00
2023-08-01T06:05:01.432Z,7.50
2023-08-01T06:06:01.416Z,6.70
2023-08-01T06:07:01.403Z,7.10
2023-08-01T06:08:01.385Z,6.20
2023-08-01T06:09:01.362Z,7.30
2023-08-01T06:10:01.346Z,7.10
2023-08-01T06:11:01.354Z,6.80
2023-08-01T06:12:01.353Z,7.10
2023-08-01T06:13:01.310Z,6.70
2023-08-01T06:14:01.295Z,5.60
2023-08-01T06:15:01.293Z,4.60
2023-08-01T06:16:01.308Z,6.60
2023-08-01T06:17:01.271Z,5.30
2023-08-01T06:18:01.253Z,4.60
2023-08-01T06:19:01.227Z,4.60
2023-08-01T06:20:01.220Z,4.80
2023-08-01T06:21:01.245Z,5.50
2023-08-01T06:22:01.187Z,4.90
2023-08-01T06:23:01.187Z,5.30
2023-08-01T06:24:01.203Z,6.40
2023-08-01T06:25:01.150Z,3.80
2023-08-01T06:26:01.153Z,5.00
2023-08-01T06:27:01.120Z,4.20
2023-08-01T06:28:01.133Z,5.30
2023-08-01T06:29:01.096Z,4.50
2023-08-01T06:30:01.108Z,4.40
2023-08-01T06:31:01.090Z,5.10
2023-08-01T06:32:01.101Z,5.10
2023-08-01T06:33:01.099Z,5.30
2023-08-01T06:34:01.031Z,4.20
2023-08-01T06:35:01.042Z,4.50
2023-08-01T06:36:01.033Z,4.30
2023-08-01T06:37:01.020Z,5.00
2023-08-01T06:38:00.974Z,4.10
2023-08-01T06:39:00.968Z,5.70
2023-08-01T06:40:00.962Z,5.70
2023-08-01T06:41:00.933Z,4.40
2023-08-01T06:42:00.937Z,5.90
2023-08-01T06:43:00.918Z,5.70
2023-08-01T06:44:00.940Z,4.10
2023-08-01T06:45:00.897Z,4.40
2023-08-01T06:46:00.905Z,6.20
2023-08-01T06:47:00.873Z,4.60
2023-08-01T06:48:00.865Z,6.80
2023-08-01T06:49:00.854Z,5.60
2023-08-01T06:50:00.836Z,5.00
2023-08-01T06:51:00.806Z,5.60
2023-08-01T06:52:00.789Z,4.90
2023-08-01T06:53:00.803Z,4.40
2023-08-01T06:54:00.775Z,4.50
2023-08-01T06:55:00.752Z,3.50
2023-08-01T06:56:00.741Z,5.00
2023-08-01T06:57:00.723Z,3.50
2023-08-01T06:58:00.730Z,4.30
2023-08-01T06:59:00.711Z,4.70
2023-08-01T07:00:00.684Z,3.00
2023-08-01T07:01:00.679Z,4.60
2023-08-01T07:02:00.657Z,3.70
2023-08-01T07:03:00.773Z,4.40
2023-08-01T07:04:00.648Z,4.40
2023-08-01T07:05:00.618Z,3.70
2023-08-01T07:06:00.603Z,3.70
2023-08-01T07:07:00.601Z,3.70
2023-08-01T07:08:00.605Z,4.60
2023-08-01T07:09:00.643Z,3.10
2023-08-01T07:10:00.567Z,3.40
2023-08-01T07:11:00.549Z,4.60
2023-08-01T07:12:00.548Z,3.80
2023-08-01T07:13:00.533Z,3.50
2023-08-01T07:14:00.501Z,4.00
2023-08-01T07:15:02.508Z,4.70
2023-08-01T07:16:00.479Z,5.00
2023-08-01T07:17:00.458Z,3.50
2023-08-01T07:18:00.569Z,4.30
2023-08-01T07:19:00.434Z,4.40
2023-08-01T07:20:00.434Z,3.60
2023-08-01T07:21:00.403Z,3.80
2023-08-01T07:22:00.409Z,3.40
2023-08-01T07:23:00.413Z,3.20
2023-08-01T07:24:00.377Z,4.30
2023-08-01T07:25:00.388Z,3.80
2023-08-01T07:26:00.372Z,3.00
2023-08-01T07:27:00.358Z,3.10
2023-08-01T07:28:00.365Z,3.60
2023-08-01T07:29:00.303Z,3.70
2023-08-01T07:30:00.315Z,3.00
2023-08-01T07:31:00.289Z,3.00
2023-08-01T07:32:00.332Z,3.50
2023-08-01T07:33:00.264Z,5.20
2023-08-01T07:34:00.231Z,3.60
2023-08-01T07:35:00.232Z,2.40
2023-08-01T07:36:00.200Z,2.30
2023-08-01T07:37:00.233Z,2.60
2023-08-01T07:38:00.177Z,2.40
2023-08-01T07:39:00.177Z,2.30
2023-08-01T07:40:00.200Z,3.20
2023-08-01T07:41:00.217Z,3.40
2023-08-01T07:42:00.152Z,2.10
2023-08-01T07:43:00.120Z,3.00
2023-08-01T07:44:00.141Z,2.20
2023-08-01T07:45:00.102Z,2.40
2023-08-01T07:46:00.207Z,2.00
2023-08-01T07:47:00.070Z,2.10
2023-08-01T07:48:00.138Z,2.50
2023-08-01T07:49:00.047Z,2.70
2023-08-01T07:50:00.050Z,2.60
2023-08-01T07:51:00.038Z,3.60
2023-08-01T07:52:00.001Z,2.60
2023-08-01T07:52:59.976Z,2.80
2023-08-01T07:53:59.995Z,2.60
2023-08-01T07:54:59.993Z,3.20
2023-08-01T07:55:59.952Z,2.10
2023-08-01T07:56:59.963Z,1.90
2023-08-01T07:57:59.918Z,2.60
2023-08-01T07:58:59.901Z,1.50
2023-08-01T07:59:59.904Z,2.30
2023-08-01T08:00:59.927Z,1.80
2023-08-01T08:01:59.872Z,2.40
2023-08-01T08:02:59.873Z,1.60
2023-08-01T08:04:01.673Z,2.00
2023-08-01T08:04:59.841Z,2.50
2023-08-01T08:05:59.852Z,2.10
2023-08-01T08:06:59.792Z,2.00
2023-08-01T08:07:59.778Z,2.10
2023-08-01T08:08:59.777Z,3.10
2023-08-01T08:09:59.783Z,2.20
2023-08-01T08:10:59.743Z,4.20
2023-08-01T08:11:59.731Z,1.60
2023-08-01T08:12:59.797Z,2.20
2023-08-01T08:13:59.702Z,2.30
2023-08-01T08:14:59.704Z,4.10
2023-08-01T08:15:59.819Z,3.00
2023-08-01T08:16:59.740Z,2.20
2023-08-01T08:17:59.672Z,2.70
2023-08-01T08:18:59.657Z,2.70
2023-08-01T08:19:59.670Z,10.00
2023-08-01T08:20:59.611Z,2.80
2023-08-01T08:21:59.599Z,1.90
2023-08-01T08:22:59.584Z,2.30
2023-08-01T08:23:59.602Z,2.10
2023-08-01T08:24:59.575Z,2.80
2023-08-01T08:25:59.537Z,1.70
2023-08-01T08:26:59.528Z,1.90
2023-08-01T08:27:59.563Z,1.40
2023-08-01T08:28:59.539Z,2.10
2023-08-01T08:29:59.498Z,1.60
2023-08-01T08:30:59.514Z,2.80
2023-08-01T08:31:59.457Z,1.30
2023-08-01T08:32:59.481Z,2.70
2023-08-01T08:33:59.470Z,1.80
2023-08-01T08:34:59.424Z,2.30
2023-08-01T08:35:59.414Z,2.00
2023-08-01T08:36:59.392Z,1.70
2023-08-01T08:37:59.398Z,2.10
2023-08-01T08:38:59.418Z,2.50
2023-08-01T08:39:59.358Z,1.80
2023-08-01T08:40:59.345Z,1.50
2023-08-01T08:41:59.332Z,2.10
2023-08-01T08:42:59.339Z,2.40
2023-08-01T08:43:59.313Z,1.60
2023-08-01T08:44:59.428Z,1.90
2023-08-01T08:45:59.306Z,2.50
2023-08-01T08:46:59.288Z,1.70
2023-08-01T08:47:59.291Z,2.10
2023-08-01T08:48:59.237Z,1.70
2023-08-01T08:49:59.224Z,1.70
2023-08-01T08:50:59.210Z,3.60
2023-08-01T08:51:59.213Z,2.50
2023-08-01T08:52:59.205Z,2.10
2023-08-01T08:54:01.676Z,2.80
2023-08-01T08:54:59.158Z,2.20
2023-08-01T08:55:59.147Z,2.60
2023-08-01T08:56:59.151Z,1.50
2023-08-01T08:57:59.119Z,2.10
2023-08-01T08:58:59.141Z,1.90
2023-08-01T08:59:59.097Z,2.40
2023-08-01T09:00:59.168Z,1.50
2023-08-01T09:01:59.094Z,2.40
2023-08-01T09:02:59.091Z,2.00
2023-08-01T09:03:59.608Z,3.00
2023-08-01T09:04:59.057Z,2.60
2023-08-01T09:05:59.016Z,2.30
2023-08-01T09:06:59.047Z,3.50
2023-08-01T09:07:58.993Z,3.40
2023-08-01T09:08:58.991Z,1.30
2023-08-01T09:09:58.970Z,1.60
2023-08-01T09:10:58.978Z,2.30
2023-08-01T09:11:58.962Z,3.30
2023-08-01T09:12:58.950Z,2.00
2023-08-01T09:13:58.918Z,2.80
2023-08-01T09:15:00.094Z,2.90
2023-08-01T09:15:58.925Z,1.40
2023-08-01T09:16:58.951Z,2.70
2023-08-01T09:17:58.884Z,2.60
2023-08-01T09:18:58.852Z,1.30
2023-08-01T09:19:58.839Z,2.50
2023-08-01T09:20:58.841Z,2.20
2023-08-01T09:21:58.850Z,4.50
2023-08-01T09:22:58.806Z,2.80
2023-08-01T09:23:58.789Z,2.90
2023-08-01T09:24:58.788Z,2.40
2023-08-01T09:26:00.406Z,3.70
2023-08-01T09:26:58.746Z,2.50
2023-08-01T09:27:58.798Z,2.60
2023-08-01T09:28:58.737Z,2.80
2023-08-01T09:29:58.726Z,3.00
2023-08-01T09:30:58.883Z,1.40
2023-08-01T09:31:58.707Z,1.90
2023-08-01T09:32:58.741Z,2.90
2023-08-01T09:33:58.669Z,2.00
2023-08-01T09:34:58.657Z,2.10
2023-08-01T09:35:58.630Z,2.80
2023-08-01T09:36:58.628Z,1.80
2023-08-01T09:37:58.627Z,2.40
2023-08-01T09:38:58.612Z,2.70
2023-08-01T09:39:58.597Z,1.70
2023-08-01T09:40:58.593Z,2.10
2023-08-01T09:41:58.580Z,1.70
2023-08-01T09:42:58.558Z,3.00
2023-08-01T09:43:58.559Z,1.60
2023-08-01T09:44:58.514Z,2.00
2023-08-01T09:45:58.533Z,1.80
2023-08-01T09:46:58.509Z,2.30
2023-08-01T09:47:58.566Z,1.70
2023-08-01T09:48:58.520Z,2.50
2023-08-01T09:49:58.459Z,2.70
2023-08-01T09:50:58.447Z,2.30
2023-08-01T09:51:58.483Z,1.80
2023-08-01T09:52:59.994Z,3.50
2023-08-01T09:53:58.414Z,2.10
2023-08-01T09:54:58.390Z,2.40
2023-08-01T09:55:58.385Z,2.30
2023-08-01T09:56:58.370Z,1.60
2023-08-01T09:57:58.356Z,2.90
2023-08-01T09:58:58.358Z,2.50
2023-08-01T09:59:58.339Z,1.40
2023-08-01T10:00:58.325Z,2.00
2023-08-01T10:01:58.363Z,2.30
2023-08-01T10:02:58.480Z,3.40
2023-08-01T10:03:58.372Z,3.10
2023-08-01T10:04:58.338Z,3.10
2023-08-01T10:05:58.250Z,1.20
2023-08-01T10:06:58.278Z,2.20
2023-08-01T10:07:58.240Z,2.10
2023-08-01T10:08:58.357Z,3.00
2023-08-01T10:09:58.203Z,1.40
2023-08-01T10:10:58.257Z,2.70
2023-08-01T10:11:58.171Z,1.30
2023-08-01T10:12:58.181Z,3.80
2023-08-01T10:13:58.146Z,3.80
2023-08-01T10:14:58.150Z,2.20
2023-08-01T10:15:58.141Z,2.40
2023-08-01T10:16:58.177Z,4.30
2023-08-01T10:17:58.271Z,2.10
2023-08-01T10:18:58.092Z,1.70
2023-08-01T10:19:58.076Z,1.60
2023-08-01T10:20:58.093Z,1.10
2023-08-01T10:21:58.071Z,3.50
2023-08-01T10:22:58.050Z,2.10
2023-08-01T10:23:58.037Z,1.60
2023-08-01T10:24:58.024Z,1.70
2023-08-01T10:25:58.003Z,1.30
2023-08-01T10:26:58.034Z,1.50
2023-08-01T10:27:58.074Z,1.70
2023-08-01T10:28:57.963Z,1.40
2023-08-01T10:29:57.953Z,1.90
2023-08-01T10:30:57.943Z,1.00
2023-08-01T10:31:57.962Z,1.20
2023-08-01T10:32:58.028Z,2.50
2023-08-01T10:33:57.907Z,1.10
2023-08-01T10:34:57.890Z,2.60
2023-08-01T10:35:57.962Z,1.50
2023-08-01T10:36:57.931Z,1.50
2023-08-01T10:37:57.923Z,1.10
2023-08-01T10:38:57.843Z,0.80
2023-08-01T10:39:57.842Z,2.20
2023-08-01T10:40:57.854Z,1.30
2023-08-01T10:41:57.811Z,1.70
2023-08-01T10:42:57.805Z,1.40
2023-08-01T10:43:57.792Z,1.10
2023-08-01T10:44:57.765Z,2.30
2023-08-01T10:45:57.787Z,1.10
2023-08-01T10:46:57.742Z,1.90
2023-08-01T10:47:57.754Z,1.50
2023-08-01T10:48:57.729Z,1.30
2023-08-01T10:49:57.719Z,1.50
2023-08-01T10:50:57.744Z,1.60
2023-08-01T10:51:57.678Z,1.70
2023-08-01T10:53:57.653Z,2.20
2023-08-01T10:54:57.653Z,1.50
2023-08-01T10:55:57.644Z,1.90
2023-08-01T10:56:57.611Z,1.40
2023-08-01T10:57:57.616Z,1.40
2023-08-01T10:58:57.587Z,1.60
2023-08-01T10:59:57.594Z,2.00
2023-08-01T11:00:57.583Z,2.70
2023-08-01T11:01:57.549Z,1.50
2023-08-01T11:02:57.609Z,1.70
2023-08-01T11:03:57.608Z,1.90
2023-08-01T11:04:58.008Z,2.20
2023-08-01T11:05:57.501Z,1.60
2023-08-01T11:06:57.571Z,2.80
2023-08-01T11:07:57.474Z,2.10
2023-08-01T11:08:57.510Z,3.50
2023-08-01T11:09:57.466Z,2.00
2023-08-01T11:10:57.427Z,3.20
2023-08-01T11:11:57.422Z,2.30
2023-08-01T11:12:57.410Z,0.90
2023-08-01T11:13:57.411Z,2.60
2023-08-01T11:14:57.416Z,2.90
2023-08-01T11:15:57.394Z,1.50
2023-08-01T11:16:57.363Z,2.10
2023-08-01T11:17:57.588Z,1.20
2023-08-01T11:18:57.342Z,1.70
2023-08-01T11:19:57.320Z,2.90
2023-08-01T11:20:57.304Z,1.80
2023-08-01T11:21:57.289Z,1.90
2023-08-01T11:22:57.300Z,1.90
2023-08-01T11:23:57.285Z,2.00
2023-08-01T11:24:57.320Z,1.50
2023-08-01T11:25:57.262Z,1.90
2023-08-01T11:26:57.229Z,1.40
2023-08-01T11:27:57.488Z,2.90
2023-08-01T11:28:57.218Z,1.60
2023-08-01T11:29:57.189Z,1.90
2023-08-01T11:30:57.202Z,2.50
2023-08-01T11:31:57.171Z,1.40
2023-08-01T11:32:57.227Z,1.50
2023-08-01T11:33:57.169Z,2.20
2023-08-01T11:34:57.126Z,1.40
2023-08-01T11:35:57.126Z,1.20
2023-08-01T11:36:57.129Z,2.20
2023-08-01T11:37:57.103Z,1.70
2023-08-01T11:38:57.068Z,2.40
2023-08-01T11:39:57.059Z,1.90
2023-08-01T11:40:57.088Z,2.10
2023-08-01T11:41:57.043Z,2.80
2023-08-01T11:42:57.031Z,2.90
2023-08-01T11:43:57.015Z,1.80
2023-08-01T11:44:56.994Z,2.20
2023-08-01T11:45:57.057Z,2.60
2023-08-01T11:46:56.993Z,2.00
2023-08-01T11:47:57.006Z,2.40
2023-08-01T11:48:56.940Z,1.70
2023-08-01T11:49:56.946Z,2.80
2023-08-01T11:50:56.918Z,1.80
2023-08-01T11:51:56.923Z,1.60
2023-08-01T11:52:56.894Z,2.40
2023-08-01T11:53:56.930Z,2.10
2023-08-01T11:54:56.871Z,1.70
2023-08-01T11:55:56.868Z,1.40
2023-08-01T11:56:56.881Z,3.80
2023-08-01T11:57:56.830Z,2.60
2023-08-01T11:58:56.819Z,1.70
2023-08-01T11:59:56.801Z,2.80
2023-08-01T12:00:56.872Z,2.20
2023-08-01T12:01:56.845Z,3.00
2023-08-01T12:02:56.804Z,2.70
2023-08-01T12:03:56.809Z,2.50
2023-08-01T12:04:56.737Z,2.20
2023-08-01T12:05:56.737Z,1.90
2023-08-01T12:06:56.747Z,2.00
2023-08-01T12:07:56.705Z,2.30
2023-08-01T12:08:56.690Z,1.80
2023-08-01T12:09:56.710Z,1.80
2023-08-01T12:10:56.765Z,2.20
2023-08-01T12:11:56.656Z,2.30
2023-08-01T12:12:56.654Z,2.20
2023-08-01T12:13:56.623Z,1.80
2023-08-01T12:14:56.643Z,2.10
2023-08-01T12:15:56.670Z,3.90
2023-08-01T12:16:56.612Z,2.40
2023-08-01T12:17:56.605Z,2.40
2023-08-01T12:19:00.813Z,1.70
2023-08-01T12:19:56.551Z,3.10
2023-08-01T12:20:56.549Z,2.10
2023-08-01T12:21:56.536Z,1.50
2023-08-01T12:22:56.513Z,1.00
2023-08-01T12:23:56.501Z,1.20
2023-08-01T12:24:56.484Z,1.60
2023-08-01T12:25:56.492Z,2.00
2023-08-01T12:26:56.474Z,3.60
2023-08-01T12:27:56.451Z,2.10
2023-08-01T12:28:56.455Z,2.30
2023-08-01T12:29:56.444Z,2.60
2023-08-01T12:30:56.455Z,2.00
2023-08-01T12:31:56.414Z,1.60
2023-08-01T12:32:56.442Z,1.20
2023-08-01T12:33:56.385Z,1.80
2023-08-01T12:34:56.404Z,1.70
2023-08-01T12:35:56.354Z,1.50
2023-08-01T12:36:56.333Z,2.10
2023-08-01T12:37:56.317Z,2.00
2023-08-01T12:38:56.315Z,1.50
2023-08-01T12:39:56.310Z,1.60
2023-08-01T12:40:56.292Z,2.80
2023-08-01T12:41:56.271Z,1.50
2023-08-01T12:42:56.249Z,4.10
2023-08-01T12:43:56.252Z,1.20
2023-08-01T12:44:56.268Z,1.90
2023-08-01T12:45:56.216Z,1.40
2023-08-01T12:46:56.252Z,1.70
2023-08-01T12:47:56.242Z,1.10
2023-08-01T12:48:56.196Z,2.10
2023-08-01T12:49:56.185Z,1.90
2023-08-01T12:50:56.149Z,2.40
2023-08-01T12:51:56.141Z,2.50
2023-08-01T12:52:56.125Z,2.20
2023-08-01T12:53:56.175Z,2.30
2023-08-01T12:54:56.102Z,2.70
2023-08-01T12:55:56.098Z,2.30
2023-08-01T12:56:56.071Z,3.10
2023-08-01T12:57:56.108Z,1.60
2023-08-01T12:58:56.063Z,3.40
2023-08-01T12:59:56.045Z,2.50
2023-08-01T13:00:56.076Z,2.50
2023-08-01T13:01:56.068Z,2.90
2023-08-01T13:02:56.026Z,1.60
2023-08-01T13:03:56.015Z,2.50
2023-08-01T13:04:55.969Z,2.10
2023-08-01T13:05:55.960Z,2.00
2023-08-01T13:06:55.949Z,3.00
2023-08-01T13:07:55.961Z,1.60
2023-08-01T13:08:55.952Z,3.20
2023-08-01T13:09:55.919Z,2.10
2023-08-01T13:10:55.901Z,2.90
2023-08-01T13:11:55.904Z,2.80
2023-08-01T13:12:55.920Z,2.60